Time;durP1;ratioP1;P1;durP2;ratioP2;P2;SDS_P1;SDS_P2;PMS_P1;PMS_P2;Temp;Humidity;BMP_temperature;BMP_pressure;BME280_temperature;BME280_humidity;BME280_pressure;Samples;Min_cycle;Max_cycle;Signal;HPM_P1;HPM_P2
2021/01/10 00:00:16;;;;;;;33.90;20.73;;;2.60;99.90;;;;;;4975648;28;20629;-85
2021/01/10 00:02:43;;;;;;;37.65;20.95;;;2.50;99.90;;;;;;4970761;28;20231;-86
2021/01/10 00:05:17;;;;;;;34.67;20.75;;;2.70;99.90;;;;;;4963930;28;20227;-86
2021/01/10 00:07:43;;;;;;;32.92;20.05;;;2.60;99.90;;;;;;4972088;28;20242;-85
2021/01/10 00:10:10;;;;;;;33.13;18.57;;;2.20;99.90;;;;;;4953524;28;20174;-86
2021/01/10 00:12:37;;;;;;;38.00;20.40;;;2.40;99.90;;;;;;4974159;28;20443;-85
2021/01/10 00:15:06;;;;;;;29.92;18.60;;;2.40;99.90;;;;;;4958288;28;20299;-86
2021/01/10 00:17:37;;;;;;;30.95;19.20;;;2.60;99.90;;;;;;4974545;28;20194;-85
2021/01/10 00:20:07;;;;;;;29.15;17.80;;;2.40;99.90;;;;;;4974508;28;20194;-85
2021/01/10 00:22:33;;;;;;;34.88;19.80;;;2.60;99.90;;;;;;4974275;28;20187;-85
2021/01/10 00:24:59;;;;;;;26.33;18.60;;;2.50;99.90;;;;;;4978772;28;20225;-84
2021/01/10 00:27:26;;;;;;;27.85;18.40;;;2.50;99.90;;;;;;4976062;28;20952;-85
2021/01/10 00:29:55;;;;;;;35.33;20.58;;;2.50;99.90;;;;;;4955970;28;20195;-85
2021/01/10 00:32:21;;;;;;;34.47;20.38;;;2.60;99.90;;;;;;4944797;28;20290;-85
2021/01/10 00:34:47;;;;;;;34.33;19.30;;;2.60;99.90;;;;;;4985856;28;20189;-85
2021/01/10 00:37:19;;;;;;;35.53;19.65;;;2.70;99.90;;;;;;4985497;28;20179;-85
2021/01/10 00:39:48;;;;;;;33.75;20.17;;;2.70;99.90;;;;;;4983681;28;20199;-85
2021/01/10 00:42:17;;;;;;;35.30;19.73;;;2.60;99.90;;;;;;4968300;28;20213;-85
2021/01/10 00:44:47;;;;;;;33.83;19.15;;;2.60;99.90;;;;;;4941153;28;20245;-85
2021/01/10 00:47:17;;;;;;;30.83;19.98;;;2.30;99.90;;;;;;4970704;28;20211;-86
2021/01/10 00:49:46;;;;;;;34.70;18.80;;;2.60;99.90;;;;;;4972629;28;20221;-85
2021/01/10 00:52:15;;;;;;;32.55;19.02;;;2.50;99.90;;;;;;4956705;28;20175;-86
2021/01/10 00:54:43;;;;;;;34.65;20.80;;;2.50;99.90;;;;;;4976862;28;20198;-86
2021/01/10 00:57:10;;;;;;;37.75;21.10;;;2.50;99.90;;;;;;4951021;28;20179;-85
2021/01/10 00:59:38;;;;;;;33.30;19.90;;;2.60;99.90;;;;;;4982191;28;20559;-86
2021/01/10 01:02:04;;;;;;;39.55;22.00;;;2.30;99.90;;;;;;4953920;28;20226;-86
2021/01/10 01:04:30;;;;;;;31.63;18.75;;;2.50;99.90;;;;;;4988242;28;20190;-85
2021/01/10 01:06:57;;;;;;;42.53;22.63;;;2.40;99.90;;;;;;4994958;28;20194;-86
2021/01/10 01:09:23;;;;;;;38.63;21.98;;;2.60;99.90;;;;;;4969141;28;20672;-85
2021/01/10 01:11:49;;;;;;;35.75;20.20;;;2.60;99.90;;;;;;4979721;28;20261;-86
2021/01/10 01:14:15;;;;;;;31.70;19.83;;;2.60;99.90;;;;;;4965777;28;20262;-85
2021/01/10 01:16:43;;;;;;;38.30;22.00;;;2.80;99.90;;;;;;4966148;28;20433;-84
2021/01/10 01:19:12;;;;;;;35.25;21.02;;;2.80;99.90;;;;;;4967287;28;20222;-86
2021/01/10 01:21:40;;;;;;;35.33;20.95;;;2.70;99.90;;;;;;4972008;28;20184;-85
2021/01/10 01:24:09;;;;;;;36.60;21.23;;;2.60;99.90;;;;;;4975273;28;20203;-86
2021/01/10 01:26:37;;;;;;;40.30;20.63;;;2.70;99.90;;;;;;4969889;28;20230;-85
2021/01/10 01:29:06;;;;;;;34.92;20.30;;;2.60;99.90;;;;;;4970226;28;20191;-85
2021/01/10 01:31:33;;;;;;;34.33;20.20;;;2.70;99.90;;;;;;4979892;28;20180;-86
2021/01/10 01:34:01;;;;;;;32.75;19.70;;;2.90;99.90;;;;;;4977106;28;20445;-86
2021/01/10 01:36:29;;;;;;;39.58;20.23;;;2.70;99.90;;;;;;4981392;28;20179;-86
2021/01/10 01:38:57;;;;;;;36.97;20.60;;;2.60;99.90;;;;;;4982092;28;20633;-85
2021/01/10 01:41:24;;;;;;;41.17;19.15;;;2.80;99.90;;;;;;4976282;28;20192;-84
2021/01/10 01:43:51;;;;;;;37.13;21.08;;;2.90;99.90;;;;;;4994492;28;20647;-85
2021/01/10 01:46:29;;;;;;;32.78;21.08;;;2.70;99.90;;;;;;4972182;28;20287;-85
2021/01/10 01:49:03;;;;;;;31.33;20.08;;;2.70;99.90;;;;;;4977242;28;20269;-85
2021/01/10 01:51:37;;;;;;;32.92;19.92;;;2.70;99.90;;;;;;4978537;28;20609;-85
2021/01/10 01:54:04;;;;;;;33.92;18.85;;;2.70;99.90;;;;;;4970566;28;20610;-85
2021/01/10 01:56:36;;;;;;;35.30;21.95;;;2.70;99.90;;;;;;4985659;28;20193;-85
2021/01/10 01:59:08;;;;;;;37.47;20.23;;;2.70;99.90;;;;;;4960115;28;20184;-85
2021/01/10 02:01:41;;;;;;;34.47;19.65;;;2.90;99.90;;;;;;4966292;28;20250;-85
2021/01/10 02:04:35;;;;;;;32.92;19.38;;;2.60;99.90;;;;;;4972945;28;20176;-85
2021/01/10 02:07:23;;;;;;;33.17;19.60;;;2.50;99.90;;;;;;4964066;28;20176;-85
2021/01/10 02:10:01;;;;;;;30.73;18.42;;;2.50;99.90;;;;;;4970473;28;20191;-85
2021/01/10 02:12:29;;;;;;;36.15;21.23;;;2.50;99.90;;;;;;4963813;28;20175;-84
2021/01/10 02:15:03;;;;;;;32.20;18.85;;;2.70;99.90;;;;;;4970651;28;20198;-84
2021/01/10 02:17:30;;;;;;;34.55;18.27;;;2.60;99.90;;;;;;4962573;28;20190;-84
2021/01/10 02:20:02;;;;;;;31.33;19.63;;;2.80;99.90;;;;;;4970473;28;20233;-85
2021/01/10 02:22:35;;;;;;;34.83;17.35;;;2.50;99.90;;;;;;4966389;28;20609;-85
2021/01/10 02:25:03;;;;;;;28.10;18.33;;;2.70;99.90;;;;;;4951978;28;20211;-85
2021/01/10 02:27:30;;;;;;;33.53;18.30;;;2.50;99.90;;;;;;4965758;28;20183;-85
2021/01/10 02:29:56;;;;;;;31.42;18.92;;;2.50;99.90;;;;;;4975039;28;20519;-85
2021/01/10 02:32:27;;;;;;;29.88;19.20;;;2.40;99.90;;;;;;4951677;28;20183;-85
2021/01/10 02:35:00;;;;;;;30.27;18.95;;;2.40;99.90;;;;;;4970324;28;20193;-85
2021/01/10 02:37:47;;;;;;;35.28;19.83;;;2.50;99.90;;;;;;4972361;28;20179;-85
2021/01/10 02:40:40;;;;;;;31.52;16.90;;;2.40;99.90;;;;;;4965880;28;20188;-85
2021/01/10 02:43:33;;;;;;;31.88;17.98;;;2.50;99.90;;;;;;4968170;28;20184;-86
2021/01/10 02:46:03;;;;;;;29.95;17.42;;;2.70;99.90;;;;;;4949633;28;20215;-86
2021/01/10 02:48:29;;;;;;;30.45;19.17;;;2.50;99.90;;;;;;4957354;28;20190;-85
2021/01/10 02:50:57;;;;;;;27.92;18.35;;;2.70;99.90;;;;;;4964151;28;20195;-86
2021/01/10 02:53:23;;;;;;;33.23;18.80;;;2.50;99.90;;;;;;4970044;28;20259;-84
2021/01/10 02:55:49;;;;;;;38.40;18.95;;;2.80;99.90;;;;;;4965375;28;20956;-86
2021/01/10 02:58:27;;;;;;;32.72;17.75;;;2.60;99.90;;;;;;4974480;28;20192;-85
2021/01/10 03:00:58;;;;;;;33.70;18.02;;;2.70;99.90;;;;;;4974933;28;20193;-86
2021/01/10 03:03:27;;;;;;;28.67;18.50;;;2.50;99.90;;;;;;4966697;28;20588;-86
2021/01/10 03:06:20;;;;;;;25.75;16.73;;;2.50;99.90;;;;;;4975335;28;20215;-86
2021/01/10 03:08:51;;;;;;;28.88;16.55;;;2.50;99.90;;;;;;4963403;28;20197;-85
2021/01/10 03:11:48;;;;;;;23.67;16.65;;;1.90;99.90;;;;;;4967597;28;20186;-88
2021/01/10 03:14:14;;;;;;;25.80;16.33;;;2.40;99.90;;;;;;4945577;28;20238;-86
2021/01/10 03:16:42;;;;;;;28.48;16.75;;;2.30;99.90;;;;;;4953581;29;20202;-85
2021/01/10 03:19:11;;;;;;;29.80;17.08;;;2.40;99.90;;;;;;4972035;28;20210;-87
2021/01/10 03:21:42;;;;;;;26.80;16.77;;;2.30;99.90;;;;;;4973526;28;20582;-87
2021/01/10 03:24:11;;;;;;;26.77;16.85;;;2.00;99.90;;;;;;4961298;28;20192;-86
2021/01/10 03:26:42;;;;;;;26.70;17.23;;;2.10;99.90;;;;;;4964167;28;20708;-87
2021/01/10 03:29:15;;;;;;;33.85;15.77;;;2.00;99.90;;;;;;4956078;28;20633;-86
2021/01/10 03:31:45;;;;;;;26.10;15.70;;;2.20;99.90;;;;;;4976706;28;20285;-87
2021/01/10 03:34:16;;;;;;;26.58;16.33;;;2.00;99.90;;;;;;4968490;28;20186;-85
2021/01/10 03:36:49;;;;;;;26.65;16.60;;;2.20;99.90;;;;;;4963716;28;20172;-87
2021/01/10 03:39:17;;;;;;;32.00;18.45;;;2.00;99.90;;;;;;4977011;28;20187;-86
2021/01/10 03:41:45;;;;;;;27.65;16.30;;;2.00;99.90;;;;;;4969631;28;20250;-87
2021/01/10 03:44:17;;;;;;;25.65;16.77;;;2.10;99.90;;;;;;4966586;28;20188;-87
2021/01/10 03:46:45;;;;;;;29.00;16.52;;;2.00;99.90;;;;;;4971522;28;20282;-87
2021/01/10 03:49:13;;;;;;;29.60;17.10;;;1.80;99.90;;;;;;4932621;29;20188;-87
2021/01/10 03:51:39;;;;;;;26.85;16.70;;;1.70;99.90;;;;;;4976230;28;20269;-85
2021/01/10 03:54:14;;;;;;;29.10;15.50;;;2.10;99.90;;;;;;4947886;28;20520;-87
2021/01/10 03:56:43;;;;;;;26.98;15.95;;;1.90;99.90;;;;;;4949571;29;20196;-86
2021/01/10 03:59:12;;;;;;;27.25;16.05;;;2.00;99.90;;;;;;4969127;28;20187;-86
2021/01/10 04:01:40;;;;;;;26.73;16.17;;;1.80;99.90;;;;;;4959621;28;20227;-86
2021/01/10 04:04:09;;;;;;;29.03;17.03;;;1.80;99.90;;;;;;4965510;28;20518;-87
2021/01/10 04:06:40;;;;;;;32.25;16.88;;;1.70;99.90;;;;;;4967549;28;20461;-88
2021/01/10 04:09:13;;;;;;;30.27;16.52;;;1.80;99.90;;;;;;4952302;28;20213;-87
2021/01/10 04:11:44;;;;;;;27.88;15.73;;;1.90;99.90;;;;;;4965802;28;20179;-87
2021/01/10 04:14:15;;;;;;;26.03;16.70;;;1.60;99.90;;;;;;4933847;28;20242;-86
2021/01/10 04:16:47;;;;;;;26.25;16.00;;;2.00;99.90;;;;;;4934527;28;20427;-86
2021/01/10 04:19:18;;;;;;;24.60;16.88;;;1.70;99.90;;;;;;4935376;28;20184;-86
2021/01/10 04:21:49;;;;;;;30.98;17.73;;;1.80;99.90;;;;;;4948839;29;20255;-87
2021/01/10 04:24:17;;;;;;;25.35;16.58;;;1.60;99.90;;;;;;4968500;28;20195;-87
2021/01/10 04:26:49;;;;;;;29.67;16.40;;;1.70;99.90;;;;;;4969041;28;20219;-87
2021/01/10 04:29:21;;;;;;;29.02;15.75;;;1.80;99.90;;;;;;4975692;28;20479;-88
2021/01/10 04:31:54;;;;;;;25.70;16.60;;;1.70;99.90;;;;;;4963369;28;20191;-87
2021/01/10 04:34:20;;;;;;;26.52;15.15;;;1.70;99.90;;;;;;4956204;29;20507;-86
2021/01/10 04:36:51;;;;;;;30.40;16.30;;;1.80;99.90;;;;;;4956396;29;20192;-87
2021/01/10 04:39:19;;;;;;;26.33;15.55;;;1.80;99.90;;;;;;4966116;28;20274;-87
2021/01/10 04:41:53;;;;;;;29.15;16.65;;;1.50;99.90;;;;;;4960034;28;20178;-87
2021/01/10 04:44:23;;;;;;;25.42;15.75;;;1.60;99.90;;;;;;4975748;28;20191;-87
2021/01/10 04:46:54;;;;;;;23.23;14.38;;;1.40;99.90;;;;;;4975746;28;20214;-86
2021/01/10 04:49:26;;;;;;;22.98;13.05;;;1.30;99.90;;;;;;4976061;28;20175;-87
2021/01/10 04:51:56;;;;;;;23.23;14.48;;;1.50;99.90;;;;;;4975819;28;20193;-87
2021/01/10 04:54:32;;;;;;;23.42;14.00;;;1.30;99.90;;;;;;4952068;28;20172;-88
2021/01/10 04:57:03;;;;;;;21.88;15.52;;;1.30;99.90;;;;;;4940490;29;20267;-86
2021/01/10 04:59:33;;;;;;;26.13;18.05;;;1.40;99.90;;;;;;4955447;29;20188;-87
2021/01/10 05:02:05;;;;;;;28.33;15.70;;;1.20;99.90;;;;;;4974319;28;20301;-87
2021/01/10 05:04:31;;;;;;;24.33;16.25;;;1.20;99.90;;;;;;4955317;28;20184;-86
2021/01/10 05:07:05;;;;;;;25.60;16.08;;;1.10;99.90;;;;;;4970543;28;20187;-86
2021/01/10 05:09:37;;;;;;;25.63;15.00;;;1.00;99.90;;;;;;4970920;28;20282;-87
2021/01/10 05:12:06;;;;;;;26.92;15.98;;;1.10;99.90;;;;;;4974442;28;20186;-87
2021/01/10 05:14:35;;;;;;;27.63;15.68;;;1.10;99.90;;;;;;4965394;28;20196;-86
2021/01/10 05:17:15;;;;;;;28.63;17.00;;;1.10;99.90;;;;;;4938775;28;20214;-87
2021/01/10 05:19:47;;;;;;;27.38;16.13;;;1.10;99.90;;;;;;4978344;28;20183;-86
2021/01/10 05:22:20;;;;;;;23.48;15.52;;;1.10;99.90;;;;;;4963132;28;20682;-86
2021/01/10 05:24:51;;;;;;;27.58;17.30;;;1.00;99.90;;;;;;4979032;28;20755;-86
2021/01/10 05:27:19;;;;;;;29.88;16.98;;;1.20;99.90;;;;;;4978634;28;20199;-86
2021/01/10 05:29:52;;;;;;;33.17;18.27;;;1.20;99.90;;;;;;4979419;28;20254;-86
2021/01/10 05:32:24;;;;;;;32.58;18.60;;;1.30;99.90;;;;;;4993699;28;20186;-86
2021/01/10 05:35:01;;;;;;;29.05;18.25;;;1.30;99.90;;;;;;4993878;28;20192;-85
2021/01/10 05:37:27;;;;;;;32.53;18.70;;;1.40;99.90;;;;;;4978416;28;20187;-86
2021/01/10 05:39:58;;;;;;;33.15;19.63;;;1.40;99.90;;;;;;4978616;28;20199;-85
2021/01/10 05:42:36;;;;;;;30.77;17.85;;;1.50;99.90;;;;;;4970296;28;20184;-85
2021/01/10 05:45:07;;;;;;;34.50;20.00;;;1.60;99.90;;;;;;4948580;28;20212;-86
2021/01/10 05:47:41;;;;;;;35.50;20.52;;;1.60;99.90;;;;;;4961578;28;20211;-86
2021/01/10 05:50:16;;;;;;;40.03;20.10;;;1.60;99.90;;;;;;4977655;28;20183;-85
2021/01/10 05:52:43;;;;;;;37.75;20.45;;;1.60;99.90;;;;;;4961737;28;20180;-87
2021/01/10 05:55:12;;;;;;;38.58;20.48;;;1.50;99.90;;;;;;4962013;28;20195;-85
2021/01/10 05:57:42;;;;;;;37.88;21.15;;;1.50;99.90;;;;;;4978072;28;20270;-87
2021/01/10 06:00:09;;;;;;;38.28;21.92;;;1.70;99.90;;;;;;4971844;28;20211;-85
2021/01/10 06:02:37;;;;;;;45.33;23.25;;;1.60;99.90;;;;;;4961084;28;20242;-86
2021/01/10 06:05:20;;;;;;;36.53;21.75;;;1.50;99.90;;;;;;4941936;29;20250;-85
2021/01/10 06:07:53;;;;;;;50.97;22.80;;;1.60;99.90;;;;;;4958439;29;20200;-85
2021/01/10 06:10:29;;;;;;;43.58;21.40;;;1.60;99.90;;;;;;4974884;28;20638;-85
2021/01/10 06:13:05;;;;;;;44.33;22.27;;;1.70;99.90;;;;;;4978278;28;20499;-85
2021/01/10 06:15:32;;;;;;;39.15;22.08;;;1.70;99.90;;;;;;4977092;28;20270;-85
2021/01/10 06:18:03;;;;;;;46.80;20.92;;;1.80;99.90;;;;;;4945437;28;20229;-85
2021/01/10 06:20:33;;;;;;;45.20;22.60;;;1.60;99.90;;;;;;4977378;28;20525;-85
2021/01/10 06:23:01;;;;;;;53.58;24.38;;;1.70;99.90;;;;;;4977050;28;20202;-87
2021/01/10 06:25:34;;;;;;;40.22;22.13;;;1.80;99.90;;;;;;4942711;29;20304;-86
2021/01/10 06:28:14;;;;;;;44.10;23.45;;;1.70;99.90;;;;;;4970727;28;20660;-87
2021/01/10 06:30:58;;;;;;;48.88;21.88;;;1.90;99.90;;;;;;4945517;28;20289;-86
2021/01/10 06:33:34;;;;;;;42.35;20.35;;;1.80;99.90;;;;;;4977974;28;20743;-86
2021/01/10 06:36:09;;;;;;;41.70;21.98;;;1.90;99.90;;;;;;4977963;28;20210;-87
2021/01/10 06:38:38;;;;;;;45.33;22.40;;;1.90;99.90;;;;;;4961319;28;20567;-85
2021/01/10 06:41:35;;;;;;;47.25;22.70;;;1.90;99.90;;;;;;4961378;28;20262;-86
2021/01/10 06:44:11;;;;;;;45.15;21.27;;;2.00;99.90;;;;;;4960775;28;20206;-85
2021/01/10 06:46:52;;;;;;;46.00;21.27;;;1.90;99.90;;;;;;4975198;28;20648;-85
2021/01/10 06:49:18;;;;;;;39.22;22.67;;;1.70;99.90;;;;;;4960481;28;20187;-85
2021/01/10 06:51:48;;;;;;;40.45;22.52;;;1.80;99.90;;;;;;4976495;28;20270;-85
2021/01/10 06:54:19;;;;;;;43.10;21.58;;;2.00;99.90;;;;;;4977016;28;20183;-84
2021/01/10 06:56:53;;;;;;;43.33;23.02;;;2.00;99.90;;;;;;4973554;28;20659;-85
2021/01/10 06:59:22;;;;;;;40.15;21.90;;;1.90;99.90;;;;;;4976026;28;20187;-85
2021/01/10 07:01:48;;;;;;;41.33;23.40;;;1.90;99.90;;;;;;4986076;28;20240;-83
2021/01/10 07:04:25;;;;;;;37.42;21.33;;;1.90;99.90;;;;;;4968464;28;20172;-83
2021/01/10 07:06:52;;;;;;;41.20;23.05;;;1.80;99.90;;;;;;4957771;28;20195;-84
2021/01/10 07:09:23;;;;;;;42.05;22.95;;;1.90;99.90;;;;;;4971998;28;20265;-83
2021/01/10 07:11:52;;;;;;;43.08;23.35;;;1.80;99.90;;;;;;4959155;28;20218;-83
2021/01/10 07:14:20;;;;;;;38.00;21.00;;;1.80;99.90;;;;;;4959927;28;20190;-85
2021/01/10 07:16:51;;;;;;;35.13;20.57;;;1.80;99.90;;;;;;4974882;28;20522;-83
2021/01/10 07:19:42;;;;;;;38.75;20.75;;;1.80;99.90;;;;;;4958553;28;20423;-84
2021/01/10 07:22:34;;;;;;;34.38;21.30;;;1.90;99.90;;;;;;4976140;28;20190;-84
2021/01/10 07:25:36;;;;;;;36.97;20.15;;;2.00;99.90;;;;;;4975336;28;20214;-84
2021/01/10 07:28:35;;;;;;;35.25;21.10;;;1.90;99.90;;;;;;4970759;28;20187;-84
2021/01/10 07:31:07;;;;;;;40.25;22.58;;;2.10;99.90;;;;;;4975558;28;20175;-83
2021/01/10 07:33:36;;;;;;;37.95;22.60;;;2.20;99.90;;;;;;4956643;28;20177;-84
2021/01/10 07:36:07;;;;;;;31.30;19.40;;;1.90;99.90;;;;;;4961127;28;20306;-83
2021/01/10 07:38:41;;;;;;;39.80;22.25;;;2.20;99.90;;;;;;4943371;28;20183;-83
2021/01/10 07:41:27;;;;;;;42.10;21.08;;;2.00;99.90;;;;;;4969158;28;20281;-84
2021/01/10 07:43:57;;;;;;;36.15;20.75;;;2.00;99.90;;;;;;4963082;28;20194;-84
2021/01/10 07:46:50;;;;;;;39.22;20.90;;;2.20;99.90;;;;;;4974799;28;20357;-84
2021/01/10 07:49:24;;;;;;;36.58;19.30;;;2.20;99.90;;;;;;4974093;28;20237;-83
2021/01/10 07:51:55;;;;;;;37.72;21.50;;;2.20;99.90;;;;;;4974847;28;20207;-83
2021/01/10 07:54:56;;;;;;;38.30;20.42;;;2.10;99.90;;;;;;4969567;28;20182;-84
2021/01/10 07:57:30;;;;;;;39.47;21.75;;;2.30;99.90;;;;;;4942211;28;20623;-83
2021/01/10 08:00:10;;;;;;;37.95;22.00;;;2.10;99.90;;;;;;4965474;28;20659;-83
2021/01/10 08:02:46;;;;;;;41.15;25.00;;;2.30;99.90;;;;;;4962252;28;20226;-83
2021/01/10 08:05:16;;;;;;;42.85;23.88;;;2.00;99.90;;;;;;4962800;28;20261;-84
2021/01/10 08:08:48;;;;;;;40.70;22.17;;;2.30;99.90;;;;;;4951139;28;20195;-84
2021/01/10 08:11:32;;;;;;;38.60;21.80;;;2.20;99.90;;;;;;4955336;28;20176;-83
2021/01/10 08:13:59;;;;;;;38.65;20.55;;;2.40;99.90;;;;;;4974453;28;20191;-83
2021/01/10 08:16:35;;;;;;;37.38;21.73;;;2.30;99.90;;;;;;4973543;28;20571;-83
2021/01/10 08:19:06;;;;;;;38.38;21.85;;;2.10;99.90;;;;;;4942649;28;20207;-83
2021/01/10 08:21:32;;;;;;;37.00;20.50;;;2.30;99.90;;;;;;4960180;28;20191;-84
2021/01/10 08:23:58;;;;;;;37.67;21.33;;;2.40;99.90;;;;;;4970720;28;20561;-84
2021/01/10 08:26:25;;;;;;;35.53;21.88;;;2.20;99.90;;;;;;4974236;28;20215;-83
2021/01/10 08:29:02;;;;;;;35.85;19.58;;;2.30;99.90;;;;;;4942152;28;20310;-83
2021/01/10 08:31:30;;;;;;;37.47;20.35;;;2.30;99.90;;;;;;4954917;28;20585;-84
2021/01/10 08:34:16;;;;;;;36.65;21.52;;;2.30;99.90;;;;;;4970848;28;20257;-83
2021/01/10 08:36:47;;;;;;;39.95;22.52;;;2.30;99.90;;;;;;4974205;28;20245;-83
2021/01/10 08:39:23;;;;;;;37.72;21.35;;;2.50;99.90;;;;;;4974701;28;20186;-84
2021/01/10 08:41:51;;;;;;;37.88;20.88;;;2.20;99.90;;;;;;4973817;28;20227;-84
2021/01/10 08:44:25;;;;;;;40.80;22.60;;;2.40;99.90;;;;;;4974443;28;20609;-84
2021/01/10 08:46:54;;;;;;;35.22;21.35;;;2.40;99.90;;;;;;4957737;28;20686;-83
2021/01/10 08:49:28;;;;;;;37.67;22.23;;;2.60;99.90;;;;;;4989753;28;20194;-84
2021/01/10 08:51:56;;;;;;;40.80;23.75;;;2.50;99.90;;;;;;4954086;29;20211;-83
2021/01/10 08:54:23;;;;;;;34.87;20.20;;;2.50;99.90;;;;;;4982715;28;20504;-84
2021/01/10 08:56:53;;;;;;;38.38;21.73;;;2.80;99.90;;;;;;4964052;28;20505;-83
2021/01/10 08:59:34;;;;;;;37.47;21.02;;;2.60;99.90;;;;;;4971738;28;20653;-83
2021/01/10 09:02:12;;;;;;;42.75;22.38;;;2.60;99.90;;;;;;4974655;28;20907;-83
2021/01/10 09:04:44;;;;;;;42.20;22.05;;;2.50;99.90;;;;;;4942888;28;20195;-83
2021/01/10 09:07:12;;;;;;;41.63;21.05;;;2.80;99.90;;;;;;4969154;28;20183;-83
2021/01/10 09:10:09;;;;;;;38.17;21.13;;;2.60;99.90;;;;;;4973539;28;20180;-83
2021/01/10 09:12:45;;;;;;;46.42;22.67;;;2.70;99.90;;;;;;4973282;28;20193;-83
2021/01/10 09:15:28;;;;;;;41.55;22.73;;;2.80;99.90;;;;;;4954396;29;20199;-84
2021/01/10 09:17:56;;;;;;;40.25;21.35;;;2.60;99.90;;;;;;4966807;28;20194;-84
2021/01/10 09:20:27;;;;;;;37.90;20.67;;;2.60;99.90;;;;;;4974431;28;20183;-84
2021/01/10 09:22:56;;;;;;;43.58;22.70;;;2.70;99.90;;;;;;4974472;28;20254;-86
2021/01/10 09:25:22;;;;;;;39.70;22.33;;;2.60;99.90;;;;;;4973885;28;20229;-83
2021/01/10 09:28:10;;;;;;;45.25;23.48;;;3.00;99.90;;;;;;4957808;28;20245;-84
2021/01/10 09:30:51;;;;;;;37.55;22.23;;;3.00;99.90;;;;;;4973491;28;20337;-84
2021/01/10 09:33:39;;;;;;;38.05;22.65;;;3.00;99.90;;;;;;4973870;28;20663;-84
2021/01/10 09:36:16;;;;;;;39.40;22.42;;;3.00;99.90;;;;;;4941339;28;20201;-84
2021/01/10 09:38:57;;;;;;;44.47;24.70;;;3.00;99.90;;;;;;4972054;28;20177;-84
2021/01/10 09:41:24;;;;;;;45.58;26.08;;;2.90;99.90;;;;;;4973935;28;20194;-84
2021/01/10 09:43:58;;;;;;;49.70;27.45;;;3.10;99.90;;;;;;4956883;28;20180;-84
2021/01/10 09:46:27;;;;;;;53.33;27.60;;;3.00;99.90;;;;;;4973703;28;20278;-84
2021/01/10 09:48:57;;;;;;;53.63;27.38;;;3.20;99.90;;;;;;4970531;28;20211;-84
2021/01/10 09:51:44;;;;;;;53.63;29.45;;;3.10;99.90;;;;;;4954932;28;20164;-84
2021/01/10 09:54:20;;;;;;;50.53;28.40;;;3.30;99.90;;;;;;4938020;28;20197;-84
2021/01/10 09:57:03;;;;;;;56.25;29.25;;;3.20;99.90;;;;;;4956300;28;20275;-84
2021/01/10 09:59:42;;;;;;;53.15;28.50;;;3.50;99.90;;;;;;4951691;28;20197;-84
2021/01/10 10:02:14;;;;;;;52.17;30.30;;;3.50;99.90;;;;;;4969779;28;20309;-84
2021/01/10 10:04:52;;;;;;;53.90;29.15;;;3.30;99.90;;;;;;4976325;28;20191;-83
2021/01/10 10:07:47;;;;;;;59.72;29.80;;;3.40;99.90;;;;;;4971714;28;20176;-85
2021/01/10 10:10:27;;;;;;;59.67;30.27;;;3.40;99.90;;;;;;4975745;28;20687;-84
2021/01/10 10:13:07;;;;;;;56.30;30.77;;;3.70;99.90;;;;;;4965175;28;20195;-84
2021/01/10 10:15:51;;;;;;;56.30;29.42;;;3.40;99.90;;;;;;4960772;28;20195;-85
2021/01/10 10:18:23;;;;;;;53.45;28.00;;;3.50;99.90;;;;;;4957250;29;20200;-84
2021/01/10 10:20:56;;;;;;;59.78;29.17;;;3.50;99.90;;;;;;4959651;28;20645;-84
2021/01/10 10:23:34;;;;;;;51.72;29.92;;;3.20;99.90;;;;;;4964341;28;20187;-84
2021/01/10 10:26:06;;;;;;;61.05;29.95;;;3.50;99.90;;;;;;4975588;28;20671;-84
2021/01/10 10:28:37;;;;;;;47.60;26.95;;;3.60;99.90;;;;;;4982144;28;20206;-84
2021/01/10 10:31:09;;;;;;;50.90;28.08;;;3.80;99.90;;;;;;4948330;28;20221;-84
2021/01/10 10:33:38;;;;;;;59.22;31.17;;;3.50;99.90;;;;;;4975620;28;20191;-84
2021/01/10 10:36:06;;;;;;;52.45;27.35;;;3.70;99.90;;;;;;4959939;28;20262;-84
2021/01/10 10:38:37;;;;;;;56.30;29.02;;;3.70;99.90;;;;;;4952291;29;20226;-84
2021/01/10 10:41:05;;;;;;;48.65;28.98;;;3.90;99.90;;;;;;4940603;29;20184;-84
2021/01/10 10:43:36;;;;;;;50.85;28.90;;;3.90;99.90;;;;;;4975666;28;20228;-84
2021/01/10 10:46:04;;;;;;;51.58;26.27;;;3.90;99.90;;;;;;4960277;28;20222;-84
2021/01/10 10:48:35;;;;;;;47.45;27.63;;;3.90;99.90;;;;;;4974735;28;20187;-83
2021/01/10 10:51:03;;;;;;;39.35;25.75;;;3.90;99.90;;;;;;4960298;28;20285;-85
2021/01/10 10:53:31;;;;;;;41.03;24.08;;;3.90;99.90;;;;;;4959892;28;20182;-84
2021/01/10 10:55:57;;;;;;;39.50;22.05;;;4.00;99.90;;;;;;4958636;28;20609;-85
2021/01/10 10:58:26;;;;;;;33.50;21.30;;;4.10;99.90;;;;;;4959691;28;20211;-84
2021/01/10 11:00:52;;;;;;;36.00;21.15;;;4.10;99.90;;;;;;4943185;28;20435;-84
2021/01/10 11:03:20;;;;;;;36.55;20.38;;;4.00;99.90;;;;;;4976403;28;20230;-85
2021/01/10 11:05:51;;;;;;;38.50;23.38;;;4.10;99.90;;;;;;4957580;28;20210;-85
2021/01/10 11:08:24;;;;;;;45.88;24.13;;;4.10;99.90;;;;;;4938836;28;20176;-85
2021/01/10 11:10:50;;;;;;;38.20;21.67;;;3.90;99.90;;;;;;4976466;28;20198;-84
2021/01/10 11:13:20;;;;;;;33.05;20.95;;;3.90;99.90;;;;;;4968644;28;20690;-84
2021/01/10 11:15:47;;;;;;;32.60;20.35;;;4.00;99.90;;;;;;4967561;28;20253;-85
2021/01/10 11:18:13;;;;;;;38.47;20.38;;;4.00;99.90;;;;;;4975301;28;20211;-84
2021/01/10 11:20:38;;;;;;;31.97;20.17;;;4.00;99.90;;;;;;4975998;28;20262;-83
2021/01/10 11:23:11;;;;;;;32.30;20.50;;;4.00;99.90;;;;;;4951011;28;20439;-83
2021/01/10 11:25:37;;;;;;;32.22;21.35;;;4.10;99.90;;;;;;4955873;28;20207;-84
2021/01/10 11:28:06;;;;;;;39.13;22.17;;;4.10;99.90;;;;;;4967764;28;20196;-84
2021/01/10 11:30:33;;;;;;;33.78;20.35;;;4.20;99.90;;;;;;4968691;28;20206;-84
2021/01/10 11:32:59;;;;;;;33.90;20.83;;;4.40;99.90;;;;;;4974398;28;20187;-85
2021/01/10 11:35:25;;;;;;;33.30;20.97;;;4.40;99.90;;;;;;4973546;28;20769;-84
2021/01/10 11:37:54;;;;;;;35.73;19.40;;;4.40;99.90;;;;;;4973658;28;20458;-84
2021/01/10 11:40:22;;;;;;;29.75;18.83;;;4.60;99.90;;;;;;4978240;28;20449;-85
2021/01/10 11:42:53;;;;;;;31.70;19.43;;;4.60;99.90;;;;;;4974434;28;20183;-84
2021/01/10 11:45:19;;;;;;;27.58;18.05;;;4.80;99.90;;;;;;4974219;28;20466;-84
2021/01/10 11:47:47;;;;;;;33.42;19.60;;;4.50;99.90;;;;;;4974454;28;20828;-84
2021/01/10 11:50:15;;;;;;;41.50;21.38;;;4.70;99.90;;;;;;4973578;28;20179;-84
2021/01/10 11:52:44;;;;;;;30.48;19.80;;;4.80;99.90;;;;;;4972893;28;20585;-84
2021/01/10 11:55:12;;;;;;;32.30;18.27;;;4.70;99.90;;;;;;4973809;28;20273;-85
2021/01/10 11:57:38;;;;;;;34.97;19.65;;;4.80;99.90;;;;;;4973517;28;20190;-83
2021/01/10 12:00:05;;;;;;;27.67;16.75;;;4.90;99.90;;;;;;4972230;28;20577;-84
2021/01/10 12:02:32;;;;;;;29.25;17.65;;;4.90;99.90;;;;;;4973687;28;20238;-84
2021/01/10 12:05:00;;;;;;;30.17;18.20;;;4.90;99.90;;;;;;4973377;28;20249;-84
2021/01/10 12:07:28;;;;;;;29.52;17.73;;;4.90;99.90;;;;;;4972932;28;20541;-84
2021/01/10 12:09:54;;;;;;;25.80;16.08;;;5.00;99.90;;;;;;4969132;28;20214;-84
2021/01/10 12:12:25;;;;;;;26.80;16.80;;;5.10;99.90;;;;;;4969419;28;20227;-85
2021/01/10 12:14:51;;;;;;;26.02;15.90;;;5.40;99.90;;;;;;4953506;28;20474;-85
2021/01/10 12:17:19;;;;;;;24.80;17.52;;;5.20;99.90;;;;;;4941564;28;20692;-84
2021/01/10 12:19:47;;;;;;;30.52;16.60;;;5.10;99.90;;;;;;4961660;28;20259;-84
2021/01/10 12:22:16;;;;;;;28.13;18.05;;;5.00;99.90;;;;;;4955988;28;20207;-84
2021/01/10 12:24:46;;;;;;;24.90;15.40;;;5.00;99.90;;;;;;4970707;28;20267;-84
2021/01/10 12:27:15;;;;;;;36.67;17.58;;;5.00;99.90;;;;;;4972828;28;20624;-84
2021/01/10 12:29:43;;;;;;;27.17;16.90;;;4.90;99.90;;;;;;4955370;28;20203;-84
2021/01/10 12:32:09;;;;;;;27.80;17.70;;;4.80;99.90;;;;;;4960107;28;20566;-84
2021/01/10 12:34:37;;;;;;;31.00;17.77;;;4.80;99.90;;;;;;4973690;28;20270;-84
2021/01/10 12:37:03;;;;;;;28.83;15.88;;;4.80;99.90;;;;;;4973329;28;20430;-84
2021/01/10 12:39:29;;;;;;;26.07;16.43;;;4.80;99.90;;;;;;4957112;28;20234;-85
2021/01/10 12:41:55;;;;;;;27.63;16.20;;;4.70;99.90;;;;;;4975312;28;20946;-84
2021/01/10 12:44:20;;;;;;;22.40;16.70;;;4.70;99.90;;;;;;4987993;28;20484;-84
2021/01/10 12:46:46;;;;;;;26.63;15.10;;;4.70;99.90;;;;;;4987689;28;20486;-84
2021/01/10 12:49:17;;;;;;;27.58;15.48;;;4.70;99.90;;;;;;4971096;28;20447;-84
2021/01/10 12:51:46;;;;;;;28.02;16.48;;;4.70;99.90;;;;;;4984565;28;20186;-84
2021/01/10 12:54:12;;;;;;;24.75;15.90;;;4.70;99.90;;;;;;4991233;28;20191;-84
2021/01/10 12:56:43;;;;;;;28.27;16.42;;;4.70;99.90;;;;;;4973162;28;20191;-84
2021/01/10 12:59:11;;;;;;;28.80;19.10;;;4.80;99.90;;;;;;4974507;28;20202;-84